createdAt,value
2024-03-11T00:01:13.142Z,100190
2024-03-11T00:03:11.920Z,100190
2024-03-11T00:05:12.136Z,100190
2024-03-11T00:07:11.471Z,100200
2024-03-11T00:09:11.380Z,100200
2024-03-11T00:11:10.938Z,100200
2024-03-11T00:13:10.856Z,100200
2024-03-11T00:15:10.351Z,100200
2024-03-11T00:17:10.131Z,100200
2024-03-11T00:19:09.900Z,100200
2024-03-11T00:21:09.566Z,100200
2024-03-11T00:23:09.389Z,100200
2024-03-11T00:25:10.434Z,100200
2024-03-11T00:27:09.034Z,100200
2024-03-11T00:29:08.604Z,100200
2024-03-11T00:31:08.342Z,100200
2024-03-11T00:33:08.115Z,100200
2024-03-11T00:35:08.504Z,100220
2024-03-11T00:37:07.703Z,100220
2024-03-11T00:39:07.279Z,100220
2024-03-11T00:41:06.962Z,100220
2024-03-11T00:43:06.783Z,100220
2024-03-11T00:45:07.476Z,100220
2024-03-11T00:47:06.300Z,100220
2024-03-11T00:49:08.594Z,100220
2024-03-11T00:51:05.657Z,100220
2024-03-11T00:53:05.524Z,100220
2024-03-11T00:55:06.160Z,100220
2024-03-11T00:57:05.017Z,100220
2024-03-11T00:59:04.686Z,100220
2024-03-11T01:01:05.274Z,100220
2024-03-11T01:03:04.655Z,100220
2024-03-11T01:05:04.567Z,100220
2024-03-11T01:07:12.604Z,100220
2024-03-11T01:09:03.720Z,100220
2024-03-11T01:11:03.378Z,100220
2024-03-11T01:13:03.051Z,100220
2024-03-11T01:15:03.008Z,100220
2024-03-11T01:17:02.312Z,100220
2024-03-11T01:19:02.077Z,100220
2024-03-11T01:21:01.822Z,100220
2024-03-11T01:23:01.596Z,100220
2024-03-11T01:25:01.420Z,100220
2024-03-11T01:27:01.021Z,100220
2024-03-11T01:29:00.788Z,100220
2024-03-11T01:31:00.477Z,100220
2024-03-11T01:33:00.341Z,100220
2024-03-11T01:35:00.599Z,100220
2024-03-11T01:36:59.737Z,100220
2024-03-11T01:38:59.431Z,100210
2024-03-11T01:40:59.132Z,100210
2024-03-11T01:42:58.932Z,100210
2024-03-11T01:44:58.654Z,100210
2024-03-11T01:46:58.337Z,100210
2024-03-11T01:48:58.620Z,100210
2024-03-11T01:50:57.964Z,100210
2024-03-11T01:52:59.058Z,100210
2024-03-11T01:54:58.132Z,100210
2024-03-11T01:56:57.547Z,100210
2024-03-11T01:58:58.048Z,100210
2024-03-11T02:00:56.705Z,100210
2024-03-11T02:02:56.514Z,100210
2024-03-11T02:04:56.029Z,100210
2024-03-11T02:06:55.704Z,100220
2024-03-11T02:08:55.447Z,100220
2024-03-11T02:10:55.831Z,100220
2024-03-11T02:12:55.730Z,100220
2024-03-11T02:14:54.570Z,100220
2024-03-11T02:16:54.567Z,100220
2024-03-11T02:18:54.038Z,100220
2024-03-11T02:20:53.709Z,100220
2024-03-11T02:22:54.814Z,100220
2024-03-11T02:24:53.244Z,100220
2024-03-11T02:26:52.833Z,100220
2024-03-11T02:28:52.527Z,100220
2024-03-11T02:30:52.266Z,100230
2024-03-11T02:32:52.240Z,100250
2024-03-11T02:34:51.635Z,100250
2024-03-11T02:36:51.608Z,100250
2024-03-11T02:38:51.242Z,100250
2024-03-11T02:40:51.009Z,100250
2024-03-11T02:42:50.527Z,100250
2024-03-11T02:44:50.329Z,100250
2024-03-11T02:46:49.961Z,100250
2024-03-11T02:48:49.693Z,100250
2024-03-11T02:50:49.404Z,100250
2024-03-11T02:52:49.083Z,100250
2024-03-11T02:54:48.771Z,100250
2024-03-11T02:56:48.968Z,100250
2024-03-11T02:58:48.228Z,100250
2024-03-11T03:00:48.653Z,100250
2024-03-11T03:02:48.443Z,100250
2024-03-11T03:04:47.360Z,100250
2024-03-11T03:06:47.123Z,100250
2024-03-11T03:08:46.886Z,100250
2024-03-11T03:10:46.623Z,100250
2024-03-11T03:12:46.559Z,100250
2024-03-11T03:14:46.004Z,100250
2024-03-11T03:16:45.675Z,100250
2024-03-11T03:18:45.426Z,100250
2024-03-11T03:20:45.193Z,100250
2024-03-11T03:22:44.998Z,100250
2024-03-11T03:24:45.292Z,100250
2024-03-11T03:26:44.431Z,100250
2024-03-11T03:28:43.975Z,100250
2024-03-11T03:30:43.778Z,100250
2024-03-11T03:32:43.522Z,100250
2024-03-11T03:34:43.178Z,100250
2024-03-11T03:36:43.174Z,100250
2024-03-11T03:38:42.670Z,100260
2024-03-11T03:40:42.469Z,100260
2024-03-11T03:42:42.309Z,100260
2024-03-11T03:44:41.840Z,100260
2024-03-11T03:46:41.551Z,100260
2024-03-11T03:48:41.251Z,100260
2024-03-11T03:50:41.122Z,100260
2024-03-11T03:52:41.182Z,100250
2024-03-11T03:54:40.380Z,100250
2024-03-11T03:56:40.323Z,100250
2024-03-11T03:58:39.835Z,100250
2024-03-11T04:00:39.716Z,100250
2024-03-11T04:02:39.712Z,100250
2024-03-11T04:04:39.281Z,100250
2024-03-11T04:06:38.859Z,100250
2024-03-11T04:08:38.491Z,100250
2024-03-11T04:10:38.151Z,100250
2024-03-11T04:12:38.294Z,100250
2024-03-11T04:14:39.187Z,100250
2024-03-11T04:16:37.392Z,100250
2024-03-11T04:18:37.173Z,100250
2024-03-11T04:20:37.149Z,100250
2024-03-11T04:22:36.772Z,100250
2024-03-11T04:24:36.480Z,100250
2024-03-11T04:26:36.267Z,100250
2024-03-11T04:28:35.980Z,100250
2024-03-11T04:30:37.987Z,100250
2024-03-11T04:32:35.715Z,100240
2024-03-11T04:34:38.568Z,100240
2024-03-11T04:36:36.863Z,100240
2024-03-11T04:38:34.952Z,100230
2024-03-11T04:40:36.576Z,100240
2024-03-11T04:42:34.419Z,100240
2024-03-11T04:44:34.165Z,100240
2024-03-11T04:46:33.836Z,100240
2024-03-11T04:48:33.595Z,100240
2024-03-11T04:50:35.780Z,100240
2024-03-11T04:52:33.034Z,100240
2024-03-11T04:54:32.821Z,100240
2024-03-11T04:56:32.607Z,100240
2024-03-11T04:58:32.450Z,100230
2024-03-11T05:00:32.668Z,100230
2024-03-11T05:02:31.862Z,100230
2024-03-11T05:04:31.537Z,100220
2024-03-11T05:06:31.345Z,100220
2024-03-11T05:08:31.052Z,100210
2024-03-11T05:10:31.373Z,100210
2024-03-11T05:12:30.956Z,100210
2024-03-11T05:14:30.409Z,100210
2024-03-11T05:16:30.232Z,100210
2024-03-11T05:18:30.076Z,100210
2024-03-11T05:20:29.801Z,100210
2024-03-11T05:22:30.058Z,100210
2024-03-11T05:24:29.405Z,100210
2024-03-11T05:26:29.175Z,100210
2024-03-11T05:28:28.909Z,100210
2024-03-11T05:30:28.842Z,100210
2024-03-11T05:32:28.614Z,100210
2024-03-11T05:34:28.423Z,100210
2024-03-11T05:36:28.322Z,100200
2024-03-11T05:38:28.019Z,100200
2024-03-11T05:40:27.746Z,100200
2024-03-11T05:42:27.751Z,100200
2024-03-11T05:44:27.420Z,100180
2024-03-11T05:46:27.294Z,100180
2024-03-11T05:48:27.211Z,100180
2024-03-11T05:50:26.996Z,100180
2024-03-11T05:52:27.120Z,100180
2024-03-11T05:54:26.664Z,100180
2024-03-11T05:56:26.557Z,100180
2024-03-11T05:58:26.587Z,100180
2024-03-11T06:00:26.340Z,100180
2024-03-11T06:02:26.201Z,100170
2024-03-11T06:04:26.233Z,100170
2024-03-11T06:06:25.928Z,100160
2024-03-11T06:08:26.906Z,100160
2024-03-11T06:10:25.830Z,100160
2024-03-11T06:12:25.632Z,100160
2024-03-11T06:14:25.453Z,100160
2024-03-11T06:16:25.327Z,100160
2024-03-11T06:18:25.287Z,100160
2024-03-11T06:20:25.116Z,100160
2024-03-11T06:22:24.971Z,100160
2024-03-11T06:24:24.771Z,100160
2024-03-11T06:26:24.672Z,100160
2024-03-11T06:28:24.628Z,100160
2024-03-11T06:30:24.463Z,100160
2024-03-11T06:32:24.670Z,100160
2024-03-11T06:34:24.239Z,100160
2024-03-11T06:36:24.027Z,100160
2024-03-11T06:38:23.890Z,100160
2024-03-11T06:40:23.766Z,100160
2024-03-11T06:42:23.749Z,100160
2024-03-11T06:44:32.912Z,100160
2024-03-11T06:46:23.837Z,100160
2024-03-11T06:48:23.397Z,100160
2024-03-11T06:50:23.254Z,100160
2024-03-11T06:52:23.299Z,100160
2024-03-11T06:54:23.174Z,100160
2024-03-11T06:56:23.141Z,100160
2024-03-11T06:58:22.972Z,100160
2024-03-11T07:00:22.826Z,100160
2024-03-11T07:02:22.735Z,100160
2024-03-11T07:04:22.727Z,100160
2024-03-11T07:06:22.846Z,100150
2024-03-11T07:08:22.473Z,100150
2024-03-11T07:10:22.874Z,100150
2024-03-11T07:12:22.358Z,100150
2024-03-11T07:14:22.257Z,100150
2024-03-11T07:16:23.300Z,100150
2024-03-11T07:18:22.502Z,100150
2024-03-11T07:20:22.225Z,100150
2024-03-11T07:22:22.074Z,100150
2024-03-11T07:24:21.909Z,100150
2024-03-11T07:26:21.876Z,100130
2024-03-11T07:28:21.900Z,100130
2024-03-11T07:30:21.777Z,100130
2024-03-11T07:32:21.859Z,100130
2024-03-11T07:34:21.802Z,100130
2024-03-11T07:36:21.686Z,100130
2024-03-11T07:38:21.731Z,100130
2024-03-11T07:40:21.650Z,100130
2024-03-11T07:42:22.234Z,100130
2024-03-11T07:44:21.416Z,100130
2024-03-11T07:46:21.432Z,100130
2024-03-11T07:48:21.307Z,100130
2024-03-11T07:50:21.777Z,100130
2024-03-11T07:52:21.434Z,100120
2024-03-11T07:54:21.265Z,100120
2024-03-11T07:56:21.195Z,100120
2024-03-11T07:58:21.176Z,100120
2024-03-11T08:00:22.542Z,100120
2024-03-11T08:02:21.260Z,100100
2024-03-11T08:04:21.033Z,100100
2024-03-11T08:06:21.048Z,100100
2024-03-11T08:08:20.848Z,100100
2024-03-11T08:10:21.246Z,100100
2024-03-11T08:12:20.771Z,100100
2024-03-11T08:14:20.974Z,100100
2024-03-11T08:16:20.823Z,100100
2024-03-11T08:18:21.193Z,100100
2024-03-11T08:20:21.042Z,100100
2024-03-11T08:22:20.683Z,100100
2024-03-11T08:24:20.575Z,100100
2024-03-11T08:26:20.602Z,100100
2024-03-11T08:28:20.560Z,100100
2024-03-11T08:30:22.189Z,100100
2024-03-11T08:32:20.572Z,100100
2024-03-11T08:34:20.447Z,100090
2024-03-11T08:36:20.507Z,100080
2024-03-11T08:38:20.605Z,100080
2024-03-11T08:40:21.512Z,100080
2024-03-11T08:42:20.601Z,100080
2024-03-11T08:44:20.652Z,100080
2024-03-11T08:46:20.506Z,100080
2024-03-11T08:48:20.480Z,100080
2024-03-11T08:50:20.423Z,100080
2024-03-11T08:52:20.550Z,100080
2024-03-11T08:54:20.534Z,100080
2024-03-11T08:56:21.097Z,100080
2024-03-11T08:58:20.448Z,100080
2024-03-11T09:00:20.603Z,100080
2024-03-11T09:02:20.404Z,100090
2024-03-11T09:04:20.322Z,100090
2024-03-11T09:06:20.465Z,100090
2024-03-11T09:08:20.324Z,100090
2024-03-11T09:10:20.972Z,100090
2024-03-11T09:12:20.354Z,100080
2024-03-11T09:14:20.309Z,100080
2024-03-11T09:16:20.260Z,100080
2024-03-11T09:18:20.418Z,100080
2024-03-11T09:20:23.054Z,100080
2024-03-11T09:22:20.340Z,100080
2024-03-11T09:24:20.582Z,100070
2024-03-11T09:26:20.119Z,100060
2024-03-11T09:28:20.109Z,100060
2024-03-11T09:30:20.628Z,100060
2024-03-11T09:32:20.083Z,100060
2024-03-11T09:34:20.223Z,100050
2024-03-11T09:36:20.242Z,100050
2024-03-11T09:38:20.082Z,100050
2024-03-11T09:40:21.761Z,100050
2024-03-11T09:42:23.087Z,100050
2024-03-11T09:44:21.771Z,100050
2024-03-11T09:46:20.285Z,100050
2024-03-11T09:48:20.365Z,100050
2024-03-11T09:50:21.470Z,100060
2024-03-11T09:52:21.211Z,100060
2024-03-11T09:54:21.938Z,100060
2024-03-11T09:56:20.540Z,100060
2024-03-11T09:58:21.619Z,100060
2024-03-11T10:00:22.468Z,100060
2024-03-11T10:02:22.570Z,100060
2024-03-11T10:04:21.111Z,100060
2024-03-11T10:06:20.081Z,100060
2024-03-11T10:08:20.149Z,100060
2024-03-11T10:10:20.076Z,100060
2024-03-11T10:12:20.191Z,100060
2024-03-11T10:14:20.267Z,100060
2024-03-11T10:16:21.822Z,100050
2024-03-11T10:18:20.296Z,100050
2024-03-11T10:20:21.321Z,100050
2024-03-11T10:22:21.714Z,100050
2024-03-11T10:24:20.143Z,100050
2024-03-11T10:26:20.652Z,100050
2024-03-11T10:28:30.016Z,100050
2024-03-11T10:30:22.704Z,100050
2024-03-11T10:32:33.117Z,100030
2024-03-11T10:34:20.589Z,100030
2024-03-11T10:36:21.577Z,100030
2024-03-11T10:38:23.847Z,100020
2024-03-11T10:40:29.050Z,100020
2024-03-11T10:42:25.426Z,100020
2024-03-11T10:44:21.926Z,100020
2024-03-11T10:46:21.343Z,100020
2024-03-11T10:48:23.174Z,100020
2024-03-11T10:50:20.312Z,100020
2024-03-11T10:52:22.510Z,100020
2024-03-11T10:54:23.271Z,100020
2024-03-11T10:56:21.917Z,100020
2024-03-11T10:58:23.388Z,100020
2024-03-11T11:00:22.109Z,100010
2024-03-11T11:02:21.961Z,100010
2024-03-11T11:04:23.531Z,100000
2024-03-11T11:06:21.520Z,100000
2024-03-11T11:08:21.648Z,100000
2024-03-11T11:10:22.649Z,100000
2024-03-11T11:12:20.660Z,100000
2024-03-11T11:14:21.683Z,100000
2024-03-11T11:16:21.669Z,100000
2024-03-11T11:18:21.464Z,100000
2024-03-11T11:20:23.015Z,100000
2024-03-11T11:22:20.748Z,100000
2024-03-11T11:24:30.243Z,100000
2024-03-11T11:26:40.584Z,100000
2024-03-11T11:28:26.799Z,99990
2024-03-11T11:30:20.917Z,99990
2024-03-11T11:32:30.920Z,99990
2024-03-11T11:34:35.711Z,99990
2024-03-11T11:36:50.166Z,99980
2024-03-11T11:38:27.883Z,99980
2024-03-11T11:40:35.783Z,99980
2024-03-11T11:42:33.818Z,99980
2024-03-11T11:44:50.228Z,99980
2024-03-11T11:46:42.726Z,99980
2024-03-11T11:48:23.440Z,99980
2024-03-11T11:50:35.654Z,99980
2024-03-11T11:52:21.468Z,99980
2024-03-11T11:54:30.768Z,99980
2024-03-11T11:56:22.530Z,99980
2024-03-11T11:58:21.008Z,99980
2024-03-11T12:00:24.402Z,99980
2024-03-11T12:02:23.743Z,99980
2024-03-11T12:04:20.925Z,99980
2024-03-11T12:06:21.165Z,99980
2024-03-11T12:08:20.983Z,99980
2024-03-11T12:10:21.206Z,99980
2024-03-11T12:12:26.556Z,99980
2024-03-11T12:14:21.114Z,99980
2024-03-11T12:16:22.634Z,99980
2024-03-11T12:18:21.039Z,99980
2024-03-11T12:20:21.945Z,99980
2024-03-11T12:22:21.020Z,99980
2024-03-11T12:24:20.905Z,99970
2024-03-11T12:26:23.005Z,99970
2024-03-11T12:28:21.123Z,99970
2024-03-11T12:30:22.534Z,99970
2024-03-11T12:32:20.943Z,99970
2024-03-11T12:34:21.272Z,99950
2024-03-11T12:36:21.035Z,99950
2024-03-11T12:38:21.001Z,99950
2024-03-11T12:40:21.162Z,99950
2024-03-11T12:42:25.915Z,99950
2024-03-11T12:44:20.958Z,99950
2024-03-11T12:46:21.109Z,99950
2024-03-11T12:48:22.973Z,99950
2024-03-11T12:50:20.990Z,99950
2024-03-11T12:52:21.070Z,99950
2024-03-11T12:54:22.800Z,99950
2024-03-11T12:56:21.081Z,99950
2024-03-11T12:58:21.028Z,99950
2024-03-11T13:00:21.264Z,99950
2024-03-11T13:02:21.293Z,99950
2024-03-11T13:04:24.521Z,99950
2024-03-11T13:06:22.170Z,99940
2024-03-11T13:08:21.122Z,99940
2024-03-11T13:10:21.162Z,99920
2024-03-11T13:12:22.304Z,99920
2024-03-11T13:14:21.282Z,99920
2024-03-11T13:16:22.102Z,99920
2024-03-11T13:18:21.320Z,99920
2024-03-11T13:20:21.441Z,99920
2024-03-11T13:22:21.790Z,99920
2024-03-11T13:24:21.731Z,99920
2024-03-11T13:26:21.208Z,99910
2024-03-11T13:28:21.282Z,99910
2024-03-11T13:30:21.440Z,99910
2024-03-11T13:32:21.170Z,99910
2024-03-11T13:34:21.211Z,99910
2024-03-11T13:36:21.201Z,99900
2024-03-11T13:38:21.269Z,99900
2024-03-11T13:40:21.231Z,99900
2024-03-11T13:42:21.197Z,99900
2024-03-11T13:44:21.934Z,99900
2024-03-11T13:46:21.183Z,99890
2024-03-11T13:48:21.404Z,99890
2024-03-11T13:50:21.160Z,99890
2024-03-11T13:52:21.156Z,99890
2024-03-11T13:54:21.311Z,99890
2024-03-11T13:56:21.270Z,99890
2024-03-11T13:58:21.362Z,99890
2024-03-11T14:00:21.592Z,99890
2024-03-11T14:02:21.204Z,99890
2024-03-11T14:04:21.731Z,99890
2024-03-11T14:06:21.186Z,99890
2024-03-11T14:08:21.268Z,99890
2024-03-11T14:10:21.563Z,99890
2024-03-11T14:12:21.084Z,99890
2024-03-11T14:14:21.118Z,99890
2024-03-11T14:16:21.070Z,99890
2024-03-11T14:18:22.218Z,99890
2024-03-11T14:20:21.929Z,99890
2024-03-11T14:22:21.106Z,99890
2024-03-11T14:24:21.031Z,99890
2024-03-11T14:26:20.986Z,99890
2024-03-11T14:28:20.841Z,99890
2024-03-11T14:30:22.622Z,99890
2024-03-11T14:32:20.935Z,99890
2024-03-11T14:34:20.998Z,99890
2024-03-11T14:36:20.805Z,99890
2024-03-11T14:38:20.849Z,99890
2024-03-11T14:40:21.108Z,99890
2024-03-11T14:42:20.919Z,99890
2024-03-11T14:44:20.738Z,99890
2024-03-11T14:46:20.647Z,99890
2024-03-11T14:48:20.805Z,99890
2024-03-11T14:50:21.108Z,99890
2024-03-11T14:52:20.588Z,99890
2024-03-11T14:54:22.622Z,99890
2024-03-11T14:56:20.830Z,99890
2024-03-11T14:58:21.153Z,99890
2024-03-11T15:00:20.750Z,99880
2024-03-11T15:02:20.618Z,99860
2024-03-11T15:04:20.906Z,99860
2024-03-11T15:06:20.859Z,99860
2024-03-11T15:08:22.203Z,99860
2024-03-11T15:10:20.545Z,99860
2024-03-11T15:12:20.515Z,99860
2024-03-11T15:14:20.476Z,99860
2024-03-11T15:16:21.761Z,99860
2024-03-11T15:18:21.181Z,99870
2024-03-11T15:20:20.284Z,99870
2024-03-11T15:22:20.347Z,99870
2024-03-11T15:24:20.361Z,99870
2024-03-11T15:26:20.335Z,99880
2024-03-11T15:28:20.286Z,99880
2024-03-11T15:30:20.525Z,99880
2024-03-11T15:32:20.204Z,99880
2024-03-11T15:34:20.571Z,99880
2024-03-11T15:36:20.297Z,99880
2024-03-11T15:38:21.313Z,99880
2024-03-11T15:40:20.045Z,99880
2024-03-11T15:42:20.364Z,99890
2024-03-11T15:44:20.053Z,99900
2024-03-11T15:46:20.438Z,99910
2024-03-11T15:48:20.242Z,99910
2024-03-11T15:50:19.957Z,99910
2024-03-11T15:52:19.894Z,99910
2024-03-11T15:54:20.006Z,99910
2024-03-11T15:56:20.297Z,99910
2024-03-11T15:58:19.865Z,99910
2024-03-11T16:00:20.103Z,99910
2024-03-11T16:02:19.696Z,99920
2024-03-11T16:04:19.907Z,99920
2024-03-11T16:06:19.724Z,99920
2024-03-11T16:08:22.057Z,99920
2024-03-11T16:10:21.555Z,99920
2024-03-11T16:12:20.303Z,99920
2024-03-11T16:14:19.493Z,99920
2024-03-11T16:16:19.726Z,99920
2024-03-11T16:18:19.673Z,99920
2024-03-11T16:20:19.883Z,99920
2024-03-11T16:22:21.668Z,99930
2024-03-11T16:24:19.411Z,99930
2024-03-11T16:26:19.387Z,99930
2024-03-11T16:28:19.474Z,99930
2024-03-11T16:30:22.408Z,99930
2024-03-11T16:32:19.191Z,99930
2024-03-11T16:34:19.380Z,99930
2024-03-11T16:36:19.164Z,99930
2024-03-11T16:38:19.075Z,99930
2024-03-11T16:40:19.233Z,99930
2024-03-11T16:42:19.103Z,99930
2024-03-11T16:44:18.963Z,99930
2024-03-11T16:46:18.880Z,99930
2024-03-11T16:48:19.155Z,99930
2024-03-11T16:50:18.844Z,99930
2024-03-11T16:52:19.406Z,99930
2024-03-11T16:54:18.931Z,99930
2024-03-11T16:56:18.752Z,99930
2024-03-11T16:58:18.811Z,99930
2024-03-11T17:00:19.691Z,99930
2024-03-11T17:02:18.586Z,99930
2024-03-11T17:04:18.891Z,99930
2024-03-11T17:06:18.713Z,99930
2024-03-11T17:08:18.469Z,99940
2024-03-11T17:10:20.490Z,99940
2024-03-11T17:12:18.489Z,99940
2024-03-11T17:14:18.354Z,99940
2024-03-11T17:16:18.675Z,99940
2024-03-11T17:18:18.425Z,99950
2024-03-11T17:20:19.388Z,99950
2024-03-11T17:22:18.408Z,99950
2024-03-11T17:24:18.238Z,99950
2024-03-11T17:26:18.286Z,99950
2024-03-11T17:28:18.540Z,99950
2024-03-11T17:30:18.285Z,99950
2024-03-11T17:32:18.080Z,99950
2024-03-11T17:34:18.224Z,99950
2024-03-11T17:36:18.093Z,99950
2024-03-11T17:38:19.596Z,99950
2024-03-11T17:40:18.925Z,99950
2024-03-11T17:42:21.176Z,99950
2024-03-11T17:44:17.974Z,99950
2024-03-11T17:46:17.930Z,99950
2024-03-11T17:48:19.178Z,99950
2024-03-11T17:50:19.012Z,99950
2024-03-11T17:52:17.810Z,99950
2024-03-11T17:54:18.283Z,99950
2024-03-11T17:56:17.750Z,99950
2024-03-11T17:58:17.771Z,99950
2024-03-11T18:00:18.558Z,99950
2024-03-11T18:02:17.862Z,99960
2024-03-11T18:04:17.677Z,99960
2024-03-11T18:06:18.250Z,99970
2024-03-11T18:08:17.547Z,99970
2024-03-11T18:10:17.945Z,99970
2024-03-11T18:12:17.548Z,99970
2024-03-11T18:14:17.475Z,99970
2024-03-11T18:16:17.441Z,99970
2024-03-11T18:18:18.473Z,99970
2024-03-11T18:20:17.641Z,99970
2024-03-11T18:22:17.363Z,99970
2024-03-11T18:24:17.358Z,99970
2024-03-11T18:26:17.348Z,99970
2024-03-11T18:28:17.196Z,99970
2024-03-11T18:30:20.153Z,99970
2024-03-11T18:32:17.173Z,99970
2024-03-11T18:34:17.114Z,99970
2024-03-11T18:36:17.153Z,99970
2024-03-11T18:38:17.694Z,99970
2024-03-11T18:40:17.420Z,99970
2024-03-11T18:42:17.143Z,99970
2024-03-11T18:44:17.115Z,99970
2024-03-11T18:46:16.988Z,99980
2024-03-11T18:48:17.055Z,99980
2024-03-11T18:50:18.780Z,99980
2024-03-11T18:52:17.015Z,99980
2024-03-11T18:54:16.933Z,99980
2024-03-11T18:56:18.013Z,99980
2024-03-11T18:58:16.855Z,99980
2024-03-11T19:00:17.752Z,99980
2024-03-11T19:02:16.759Z,99980
2024-03-11T19:04:16.885Z,99980
2024-03-11T19:06:18.195Z,99980
2024-03-11T19:08:18.210Z,99990
2024-03-11T19:10:17.191Z,99990
2024-03-11T19:12:16.710Z,99990
2024-03-11T19:14:16.735Z,99990
2024-03-11T19:16:17.156Z,99990
2024-03-11T19:18:16.748Z,99990
2024-03-11T19:20:17.998Z,99990
2024-03-11T19:22:16.687Z,99990
2024-03-11T19:24:16.421Z,99990
2024-03-11T19:26:16.561Z,99990
2024-03-11T19:28:16.409Z,99990
2024-03-11T19:30:18.248Z,99990
2024-03-11T19:32:16.584Z,99990
2024-03-11T19:34:16.368Z,99990
2024-03-11T19:36:23.236Z,99990
2024-03-11T19:38:41.113Z,99990
2024-03-11T19:40:26.375Z,100000
2024-03-11T19:42:44.790Z,100000
2024-03-11T19:44:33.523Z,100000
2024-03-11T19:46:43.880Z,100000
2024-03-11T19:49:04.384Z,100000
2024-03-11T19:50:46.035Z,100000
2024-03-11T19:52:45.240Z,100000
2024-03-11T19:54:49.342Z,100000
2024-03-11T19:56:52.446Z,100000
2024-03-11T19:58:49.240Z,100000
2024-03-11T20:00:54.498Z,100000
2024-03-11T20:02:36.896Z,100000
2024-03-11T20:04:51.414Z,100000
2024-03-11T20:06:44.968Z,100000
2024-03-11T20:08:36.531Z,100000
2024-03-11T20:10:47.854Z,100000
2024-03-11T20:12:39.339Z,100000
2024-03-11T20:14:44.875Z,100000
2024-03-11T20:16:44.390Z,100000
2024-03-11T20:18:35.895Z,100000
2024-03-11T20:20:39.795Z,100000
2024-03-11T20:22:47.537Z,100000
2024-03-11T20:24:44.722Z,100000
2024-03-11T20:26:22.349Z,100000
2024-03-11T20:28:20.384Z,100010
2024-03-11T20:30:20.973Z,100010
2024-03-11T20:32:23.953Z,100010
2024-03-11T20:34:15.188Z,100010
2024-03-11T20:36:14.954Z,100010
2024-03-11T20:38:15.015Z,100010
2024-03-11T20:40:15.093Z,100020
2024-03-11T20:42:14.812Z,100020
2024-03-11T20:44:15.357Z,100020
2024-03-11T20:46:14.861Z,100020
2024-03-11T20:48:14.704Z,100020
2024-03-11T20:50:14.556Z,100020
2024-03-11T20:52:14.585Z,100020
2024-03-11T20:54:14.512Z,100030
2024-03-11T20:56:14.712Z,100040
2024-03-11T20:58:14.718Z,100030
2024-03-11T21:00:14.903Z,100030
2024-03-11T21:02:14.455Z,100030
2024-03-11T21:04:14.210Z,100030
2024-03-11T21:06:14.220Z,100040
2024-03-11T21:08:14.180Z,100040
2024-03-11T21:10:14.223Z,100040
2024-03-11T21:12:14.140Z,100040
2024-03-11T21:14:14.032Z,100040
2024-03-11T21:16:14.585Z,100040
2024-03-11T21:18:14.005Z,100040
2024-03-11T21:20:14.018Z,100040
2024-03-11T21:22:13.892Z,100040
2024-03-11T21:24:13.812Z,100040
2024-03-11T21:26:13.784Z,100040
2024-03-11T21:28:13.829Z,100050
2024-03-11T21:30:13.723Z,100050
2024-03-11T21:32:13.603Z,100050
2024-03-11T21:34:13.576Z,100050
2024-03-11T21:36:13.461Z,100050
2024-03-11T21:38:18.372Z,100050
2024-03-11T21:40:14.075Z,100050
2024-03-11T21:42:13.266Z,100050
2024-03-11T21:44:13.238Z,100050
2024-03-11T21:46:13.265Z,100050
2024-03-11T21:48:14.184Z,100050
2024-03-11T21:50:13.133Z,100050
2024-03-11T21:52:13.185Z,100050
2024-03-11T21:54:12.960Z,100050
2024-03-11T21:56:13.043Z,100050
2024-03-11T21:58:13.033Z,100050
2024-03-11T22:00:13.777Z,100050
2024-03-11T22:02:13.045Z,100050
2024-03-11T22:04:12.739Z,100050
2024-03-11T22:06:12.744Z,100050
2024-03-11T22:08:12.717Z,100050
2024-03-11T22:10:12.696Z,100050
2024-03-11T22:12:12.614Z,100050
2024-03-11T22:14:12.495Z,100060
2024-03-11T22:16:12.526Z,100060
2024-03-11T22:18:12.415Z,100060
2024-03-11T22:20:12.424Z,100060
2024-03-11T22:22:12.520Z,100060
2024-03-11T22:24:12.351Z,100060
2024-03-11T22:26:12.223Z,100070
2024-03-11T22:28:12.110Z,100070
2024-03-11T22:30:12.536Z,100070
2024-03-11T22:32:12.122Z,100070
2024-03-11T22:34:15.994Z,100070
2024-03-11T22:36:11.833Z,100070
2024-03-11T22:38:11.938Z,100070
2024-03-11T22:40:12.247Z,100070
2024-03-11T22:42:11.818Z,100070
2024-03-11T22:44:11.879Z,100070
2024-03-11T22:46:11.573Z,100070
2024-03-11T22:48:11.848Z,100070
2024-03-11T22:50:11.548Z,100070
2024-03-11T22:52:11.699Z,100070
2024-03-11T22:54:11.869Z,100070
2024-03-11T22:56:13.037Z,100070
2024-03-11T22:58:11.298Z,100080
2024-03-11T23:00:12.252Z,100080
2024-03-11T23:02:11.028Z,100080
2024-03-11T23:04:11.719Z,100080
2024-03-11T23:06:10.968Z,100080
2024-03-11T23:08:11.087Z,100080
2024-03-11T23:10:11.004Z,100080
2024-03-11T23:12:10.936Z,100080
2024-03-11T23:14:10.786Z,100080
2024-03-11T23:16:14.386Z,100080
2024-03-11T23:18:10.693Z,100080
2024-03-11T23:20:10.770Z,100080
2024-03-11T23:22:10.809Z,100080
2024-03-11T23:24:10.403Z,100080
2024-03-11T23:26:10.375Z,100080
2024-03-11T23:28:10.850Z,100080
2024-03-11T23:30:11.558Z,100080
2024-03-11T23:32:10.273Z,100080
2024-03-11T23:34:10.222Z,100090
2024-03-11T23:36:10.211Z,100090
2024-03-11T23:38:10.034Z,100090
2024-03-11T23:40:12.606Z,100090
2024-03-11T23:42:10.029Z,100090
2024-03-11T23:44:10.056Z,100090
2024-03-11T23:46:10.116Z,100090
2024-03-11T23:48:09.786Z,100090
2024-03-11T23:50:10.182Z,100090
2024-03-11T23:52:09.705Z,100090
2024-03-11T23:54:09.553Z,100090
2024-03-11T23:56:09.501Z,100090
2024-03-11T23:58:09.439Z,100090
